Main page
METAR-TAF:

METAR-TAF

Airports :

RAF Waddington

Waddington, England

latitude: 53-10N, longitude: 000-31W, elevation: 68 m

Current weather observation

The report was made 1 hour and 13 minutes ago, at 19:50 UTC
Wind 5 kt from the West/Southwest
Temperature 6°C
Humidity 81%
Pressure 1035 hPa
Visibility 10 km or more

METAR: EGXW 221950Z AUTO 25005KT 9999 OVC019/// 06/03 Q1035

Time: 21:03 (21:03 UTC)

Forecast

The report was made 31 hours and 42 minutes ago, at 13:21 UTC
Forecast valid from 21 at 15 UTC to 22 at 09 UTC
Wind 5 kt from the West
Visibility 10 km or more
Scattered clouds at a height of 2500 ft
Temporary
from 21 at 15 UTC to 22 at 09 UTC
Scattered clouds at a height of 1700 ft
Probability 30% :
Temporary
from 21 at 20 UTC to 22 at 06 UTC
Scattered clouds at a height of 1000 ft

TAF: EGXW 211321Z 2115/2209 26005KT 9999 SCT025 TEMPO 2115/2209 SCT017 PROB30 TEMPO 2120/2206 SCT010

Weather observations and forecasts of more than 4000 airports (METAR and TAF reports).

The available stations are represented by yellow and red dots on the map.

Hover mouse over dot to see the name of the station.

Then click to see weather observations and forecasts.

To change the map : click on the green buttons with a black cross to zoom in, on the green button with a dash to zoom out, or on the green arrows for adjacent maps.


METAR-TAF: